Hauptseite
METAR-TAF:

METAR-TAF

Flughäfen :

Flughafen Lübeck

Lübeck, Deutschland

Breite: 53-49N, Länge: 010-42E, Höhe: 14 m

Beobachtung

Neuester Wetterbericht von vor 10 Stunden und 36 Minuten, um 17:50 UTC
Wind 2 kt aus unterschiedlichen Richtungen
Temperatur -5°C
Luftfeuchtigkeit 100%
Luftdruck 1021 hPa
Sichtweite: 0200 m
Gefrierender Nebel

METAR: EDHL 201750Z VRB02KT 0200 R07/1200V1800N FZFG VV/// M05/M05 Q1021

Zeit: 05:26 (04:26 UTC)

Prognose

Neuester Wetterbericht von vor 11 Stunden und 26 Minuten, um 17:00 UTC
Gültige Prognose vom 20 um 18 UTC bis 20 um 21 UTC
Wind 2 kt aus unterschiedlichen Richtungen
Sichtweite: 0200 m
Geschlossene Wolkendecke in der Höhe weniger als 100 ft
Gefrierender Nebel

TAF: EDHL 201700Z 2018/2021 VRB02KT 0200 FZFG OVC000

Wetterbeobachtungen und Prognosen von mehr als 4000 Flughäfen (METAR und TAF Bericht).

Die verfügbaren Stationen werden durch gelbe und rote Markierungen auf der Karte dargestellt.

Führen Sie die Maus auf sie, um den Namen der Station zu sehen.

Darauf klicken, um die Beobachtung von Wetterbeobachtungen und Prognosen zu sehen.

Um die Karte zu ändern : klicken Sie auf den grünen Tasten mit einem schwarzen Kreuz Zum Vergrößern, auf den grünen Button mit einem Gedankenstrich zu verkleinern, oder auf die grünen Pfeile für benachbarte Karten.


METAR-TAF: